createdAt,value
2023-04-27T00:02:14.687Z,98.90
2023-04-27T00:04:44.231Z,98.60
2023-04-27T00:07:12.119Z,98.30
2023-04-27T00:09:39.917Z,97.30
2023-04-27T00:12:07.714Z,96.80
2023-04-27T00:14:39.968Z,96.40
2023-04-27T00:17:07.971Z,96.30
2023-04-27T00:19:36.861Z,95.80
2023-04-27T00:22:05.105Z,95.50
2023-04-27T00:24:32.792Z,95.30
2023-04-27T00:27:00.730Z,94.90
2023-04-27T00:29:28.817Z,94.80
2023-04-27T00:31:57.304Z,94.60
2023-04-27T00:34:25.017Z,94.70
2023-04-27T00:36:52.956Z,94.60
2023-04-27T00:39:21.317Z,94.40
2023-04-27T00:41:49.748Z,94.40
2023-04-27T00:44:17.466Z,94.40
2023-04-27T00:46:51.908Z,94.40
2023-04-27T00:49:19.601Z,94.20
2023-04-27T00:51:47.382Z,94.40
2023-04-27T00:54:15.149Z,94.60
2023-04-27T00:56:42.847Z,93.80
2023-04-27T00:59:11.425Z,93.50
2023-04-27T01:01:39.334Z,93.50
2023-04-27T01:04:07.152Z,93.40
2023-04-27T01:06:34.927Z,93.10
2023-04-27T01:09:05.388Z,92.80
2023-04-27T01:11:33.056Z,92.50
2023-04-27T01:14:00.747Z,92.40
2023-04-27T01:16:28.521Z,91.90
2023-04-27T01:18:56.139Z,91.60
2023-04-27T01:21:23.945Z,91.90
2023-04-27T01:23:51.777Z,91.90
2023-04-27T01:26:19.886Z,91.70
2023-04-27T01:28:47.472Z,91.70
2023-04-27T01:31:15.296Z,91.10
2023-04-27T01:33:43.032Z,91.50
2023-04-27T01:36:10.619Z,91.00
2023-04-27T01:38:38.415Z,90.90
2023-04-27T01:41:06.026Z,90.60
2023-04-27T01:43:33.676Z,91.00
2023-04-27T01:46:01.580Z,91.40
2023-04-27T01:48:29.577Z,90.90
2023-04-27T01:50:57.123Z,90.70
2023-04-27T01:53:25.291Z,90.20
2023-04-27T01:55:52.894Z,89.70
2023-04-27T01:58:20.448Z,89.80
2023-04-27T02:00:48.168Z,90.40
2023-04-27T02:03:15.891Z,90.60
2023-04-27T02:05:43.555Z,90.20
2023-04-27T02:08:11.545Z,90.10
2023-04-27T02:10:39.145Z,90.10
2023-04-27T02:13:06.671Z,89.80
2023-04-27T02:15:34.351Z,90.40
2023-04-27T02:18:02.001Z,90.40
2023-04-27T02:20:29.627Z,90.30
2023-04-27T02:22:57.799Z,90.10
2023-04-27T02:25:25.715Z,89.60
2023-04-27T02:27:53.299Z,89.30
2023-04-27T02:30:21.985Z,90.60
2023-04-27T02:32:50.176Z,91.30
2023-04-27T02:35:17.832Z,91.80
2023-04-27T02:37:46.470Z,92.20
2023-04-27T02:40:14.100Z,91.60
2023-04-27T02:42:41.709Z,91.30
2023-04-27T02:45:09.946Z,91.50
2023-04-27T02:47:37.705Z,91.20
2023-04-27T02:50:05.356Z,90.10
2023-04-27T02:52:33.894Z,90.20
2023-04-27T02:55:01.498Z,90.50
2023-04-27T02:57:29.302Z,90.00
2023-04-27T02:59:57.410Z,90.20
2023-04-27T03:02:26.393Z,88.20
2023-04-27T03:04:54.044Z,89.10
2023-04-27T03:07:22.175Z,87.60
2023-04-27T03:09:49.720Z,86.40
2023-04-27T03:12:17.299Z,85.90
2023-04-27T03:14:45.864Z,84.50
2023-04-27T03:17:13.492Z,85.10
2023-04-27T03:19:41.123Z,83.80
2023-04-27T03:22:09.151Z,82.70
2023-04-27T03:24:36.735Z,83.50
2023-04-27T03:27:04.312Z,83.90
2023-04-27T03:29:33.075Z,84.50
2023-04-27T03:32:00.731Z,83.40
2023-04-27T03:34:28.359Z,83.40
2023-04-27T03:36:56.292Z,84.00
2023-04-27T03:39:23.851Z,83.80
2023-04-27T03:41:51.416Z,84.10
2023-04-27T03:44:19.476Z,82.60
2023-04-27T03:46:47.028Z,81.50
2023-04-27T03:49:15.843Z,81.60
2023-04-27T03:51:44.108Z,82.40
2023-04-27T03:54:11.776Z,82.00
2023-04-27T03:56:39.716Z,82.00
2023-04-27T03:59:07.827Z,82.60
2023-04-27T04:01:36.535Z,81.40
2023-04-27T04:04:04.340Z,81.10
2023-04-27T04:06:32.530Z,82.20
2023-04-27T04:09:00.364Z,81.30
2023-04-27T04:11:27.987Z,80.60
2023-04-27T04:13:56.780Z,78.70
2023-04-27T04:16:24.568Z,79.70
2023-04-27T04:18:52.222Z,79.60
2023-04-27T04:21:20.137Z,79.30
2023-04-27T04:23:47.787Z,77.40
2023-04-27T04:26:15.453Z,77.50
2023-04-27T04:28:43.241Z,77.40
2023-04-27T04:31:10.892Z,77.50
2023-04-27T04:33:38.593Z,77.80
2023-04-27T04:36:07.337Z,79.00
2023-04-27T04:38:34.963Z,78.10
2023-04-27T04:41:02.638Z,78.20
2023-04-27T04:43:30.772Z,77.40
2023-04-27T04:45:58.387Z,76.60
2023-04-27T04:48:26.175Z,76.70
2023-04-27T04:50:54.931Z,75.70
2023-04-27T04:53:22.625Z,75.30
2023-04-27T04:55:50.340Z,75.60
2023-04-27T04:58:18.362Z,73.60
2023-04-27T05:00:45.955Z,74.10
2023-04-27T05:03:13.826Z,75.50
2023-04-27T05:05:41.979Z,75.10
2023-04-27T05:08:09.539Z,75.20
2023-04-27T05:10:37.163Z,73.70
2023-04-27T05:13:07.077Z,73.30
2023-04-27T05:15:34.885Z,74.90
2023-04-27T05:18:02.575Z,74.00
2023-04-27T05:20:30.788Z,70.90
2023-04-27T05:22:58.492Z,71.10
2023-04-27T05:25:26.106Z,71.00
2023-04-27T05:27:54.093Z,70.60
2023-04-27T05:30:21.717Z,70.90
2023-04-27T05:32:49.428Z,71.30
2023-04-27T05:35:17.369Z,71.70
2023-04-27T05:37:44.989Z,71.40
2023-04-27T05:40:12.639Z,70.50
2023-04-27T05:42:40.606Z,69.60
2023-04-27T05:45:08.209Z,69.80
2023-04-27T05:47:36.141Z,70.10
2023-04-27T05:50:04.149Z,69.80
2023-04-27T05:52:31.820Z,69.90
2023-04-27T05:54:59.983Z,69.20
2023-04-27T05:57:29.627Z,70.90
2023-04-27T05:59:57.317Z,70.40
2023-04-27T06:02:25.263Z,68.90
2023-04-27T06:04:53.207Z,68.00
2023-04-27T06:07:20.861Z,67.60
2023-04-27T06:09:48.414Z,68.80
2023-04-27T06:12:16.393Z,69.00
2023-04-27T06:14:43.923Z,68.20
2023-04-27T06:17:11.491Z,67.70
2023-04-27T06:19:40.475Z,66.90
2023-04-27T06:22:08.083Z,67.40
2023-04-27T06:24:35.717Z,67.90
2023-04-27T06:27:03.677Z,67.10
2023-04-27T06:29:31.430Z,67.80
2023-04-27T06:31:59.107Z,67.70
2023-04-27T06:34:27.095Z,67.70
2023-04-27T06:36:54.766Z,66.30
2023-04-27T06:39:22.371Z,66.10
2023-04-27T06:41:50.217Z,66.10
2023-04-27T06:44:17.791Z,66.90
2023-04-27T06:46:45.367Z,66.10
2023-04-27T06:49:13.604Z,66.20
2023-04-27T06:51:41.381Z,67.00
2023-04-27T06:54:09.089Z,66.30
2023-04-27T06:56:37.129Z,66.50
2023-04-27T06:59:04.744Z,67.20
2023-04-27T07:01:32.930Z,67.50
2023-04-27T07:04:01.238Z,67.10
2023-04-27T07:06:29.038Z,66.90
2023-04-27T07:08:56.632Z,65.90
2023-04-27T07:11:25.224Z,66.10
2023-04-27T07:13:52.843Z,66.80
2023-04-27T07:16:20.532Z,66.20
2023-04-27T07:18:48.659Z,66.20
2023-04-27T07:21:16.305Z,66.60
2023-04-27T07:23:43.866Z,66.80
2023-04-27T07:26:11.967Z,68.10
2023-04-27T07:28:39.535Z,68.00
2023-04-27T07:31:07.285Z,68.30
2023-04-27T07:33:35.317Z,68.20
2023-04-27T07:36:02.937Z,68.20
2023-04-27T07:38:31.345Z,68.40
2023-04-27T07:40:59.350Z,67.90
2023-04-27T07:43:26.945Z,67.90
2023-04-27T07:45:54.975Z,67.90
2023-04-27T07:48:22.693Z,68.10
2023-04-27T07:50:51.399Z,68.50
2023-04-27T07:53:19.406Z,68.90
2023-04-27T07:55:47.212Z,68.80
2023-04-27T07:58:14.803Z,68.60
2023-04-27T08:00:42.537Z,68.80
2023-04-27T08:03:11.182Z,68.70
2023-04-27T08:05:39.303Z,68.00
2023-04-27T08:08:07.587Z,67.90
2023-04-27T08:10:35.587Z,67.60
2023-04-27T08:13:03.202Z,67.80
2023-04-27T08:15:31.194Z,68.40
2023-04-27T08:17:58.882Z,69.60
2023-04-27T08:20:26.487Z,69.50
2023-04-27T08:22:54.082Z,69.80
2023-04-27T08:25:21.889Z,69.30
2023-04-27T08:27:49.629Z,69.80
2023-04-27T08:30:17.995Z,70.50
2023-04-27T08:32:45.765Z,71.70
2023-04-27T08:35:13.456Z,71.80
2023-04-27T08:37:41.442Z,73.00
2023-04-27T08:40:09.124Z,73.10
2023-04-27T08:42:36.940Z,72.80
2023-04-27T08:45:04.888Z,73.10
2023-04-27T08:47:42.945Z,73.90
2023-04-27T08:50:14.247Z,74.00
2023-04-27T08:52:42.061Z,73.40
2023-04-27T08:55:09.593Z,73.60
2023-04-27T08:57:37.525Z,72.70
2023-04-27T09:00:05.201Z,71.50
2023-04-27T09:02:33.528Z,73.10
2023-04-27T09:05:01.548Z,73.10
2023-04-27T09:07:29.529Z,73.40
2023-04-27T09:09:57.235Z,74.30
2023-04-27T09:12:25.156Z,74.90
2023-04-27T09:14:52.876Z,74.00
2023-04-27T09:17:20.488Z,75.10
2023-04-27T09:19:48.438Z,74.40
2023-04-27T09:22:16.118Z,74.40
2023-04-27T09:24:43.750Z,74.30
2023-04-27T09:27:11.647Z,74.30
2023-04-27T09:29:39.440Z,74.40
2023-04-27T09:32:07.006Z,73.90
2023-04-27T09:34:34.977Z,74.50
2023-04-27T09:37:02.685Z,74.50
2023-04-27T09:39:30.350Z,74.40
2023-04-27T09:41:58.236Z,75.40
2023-04-27T09:44:25.937Z,75.90
2023-04-27T09:46:53.517Z,76.60
2023-04-27T09:49:21.586Z,77.90
2023-04-27T09:51:49.911Z,78.20
2023-04-27T09:54:17.555Z,78.20
2023-04-27T09:56:45.505Z,78.10
2023-04-27T09:59:13.296Z,78.20
2023-04-27T10:01:41.346Z,78.70
2023-04-27T10:04:09.645Z,79.10
2023-04-27T10:06:37.406Z,78.80
2023-04-27T10:09:04.988Z,78.50
2023-04-27T10:11:32.923Z,78.80
2023-04-27T10:14:00.738Z,79.20
2023-04-27T10:16:28.402Z,79.50
2023-04-27T10:18:56.336Z,79.10
2023-04-27T10:21:23.935Z,79.40
2023-04-27T10:23:51.531Z,79.00
2023-04-27T10:26:19.262Z,78.10
2023-04-27T10:28:47.004Z,77.60
2023-04-27T10:31:14.653Z,76.60
2023-04-27T10:33:42.647Z,76.30
2023-04-27T10:36:10.375Z,75.90
2023-04-27T10:38:37.919Z,76.40
2023-04-27T10:41:05.865Z,77.70
2023-04-27T10:43:33.469Z,77.30
2023-04-27T10:46:01.184Z,77.60
2023-04-27T10:48:29.060Z,78.30
2023-04-27T10:50:56.721Z,80.10
2023-04-27T10:53:24.376Z,80.80
2023-04-27T10:55:52.319Z,82.20
2023-04-27T10:58:20.100Z,83.50
2023-04-27T11:00:47.744Z,83.20
2023-04-27T11:03:15.966Z,83.60
2023-04-27T11:05:43.922Z,83.40
2023-04-27T11:08:11.640Z,82.50
2023-04-27T11:10:39.764Z,82.60
2023-04-27T11:13:07.401Z,82.90
2023-04-27T11:15:37.001Z,83.30
2023-04-27T11:18:05.106Z,83.70
2023-04-27T11:20:32.979Z,84.00
2023-04-27T11:23:00.545Z,84.00
2023-04-27T11:25:29.132Z,84.30
2023-04-27T11:27:56.941Z,84.20
2023-04-27T11:30:24.505Z,84.10
2023-04-27T11:32:53.056Z,84.00
2023-04-27T11:35:20.765Z,84.30
2023-04-27T11:37:48.368Z,84.70
2023-04-27T11:40:16.326Z,85.20
2023-04-27T11:42:43.970Z,85.80
2023-04-27T11:45:11.563Z,87.40
2023-04-27T11:47:39.692Z,88.20
2023-04-27T11:50:07.409Z,88.80
2023-04-27T11:52:35.092Z,90.50
2023-04-27T11:55:02.993Z,90.80
2023-04-27T11:57:31.152Z,91.20
2023-04-27T11:59:58.824Z,91.70
2023-04-27T12:02:27.077Z,92.10
2023-04-27T12:04:55.204Z,92.00
2023-04-27T12:07:22.985Z,91.80
2023-04-27T12:09:50.604Z,91.80
2023-04-27T12:12:18.931Z,91.50
2023-04-27T12:14:46.507Z,91.00
2023-04-27T12:17:14.144Z,90.40
2023-04-27T12:19:42.870Z,90.10
2023-04-27T12:22:10.523Z,89.60
2023-04-27T12:24:38.212Z,89.70
2023-04-27T12:27:05.832Z,89.50
2023-04-27T12:29:33.910Z,89.40
2023-04-27T12:32:02.030Z,88.50
2023-04-27T12:34:29.735Z,88.90
2023-04-27T12:36:57.275Z,89.40
2023-04-27T12:39:25.146Z,90.10
2023-04-27T12:41:52.849Z,90.00
2023-04-27T12:44:20.546Z,90.10
2023-04-27T12:46:49.205Z,90.00
2023-04-27T12:49:16.877Z,88.90
2023-04-27T12:51:44.461Z,88.80
2023-04-27T12:54:12.392Z,88.70
2023-04-27T12:56:40.420Z,88.90
2023-04-27T12:59:07.969Z,88.90
2023-04-27T13:01:36.572Z,88.20
2023-04-27T13:04:04.510Z,87.80
2023-04-27T13:06:32.352Z,88.20
2023-04-27T13:09:00.344Z,88.30
2023-04-27T13:11:28.027Z,88.10
2023-04-27T13:13:55.653Z,88.40
2023-04-27T13:16:24.194Z,87.90
2023-04-27T13:18:52.004Z,87.40
2023-04-27T13:21:19.747Z,87.00
2023-04-27T13:23:47.567Z,86.80
2023-04-27T13:26:15.358Z,86.70
2023-04-27T13:28:43.038Z,86.70
2023-04-27T13:31:11.193Z,86.90
2023-04-27T13:33:39.221Z,87.10
2023-04-27T13:36:06.965Z,87.40
2023-04-27T13:38:35.006Z,87.60
2023-04-27T13:41:02.729Z,87.40
2023-04-27T13:43:30.428Z,87.60
2023-04-27T13:45:59.581Z,87.30
2023-04-27T13:48:29.031Z,87.40
2023-04-27T13:50:56.727Z,86.70
2023-04-27T13:53:24.513Z,86.60
2023-04-27T13:55:52.229Z,86.30
2023-04-27T13:58:19.878Z,86.80
2023-04-27T14:00:48.151Z,86.70
2023-04-27T14:03:16.095Z,86.80
2023-04-27T14:05:43.739Z,87.00
2023-04-27T14:08:11.694Z,86.80
2023-04-27T14:10:39.516Z,86.80
2023-04-27T14:13:07.149Z,86.50
2023-04-27T14:15:36.180Z,86.30
2023-04-27T14:18:03.978Z,86.20
2023-04-27T14:20:31.649Z,86.00
2023-04-27T14:22:59.343Z,85.70
2023-04-27T14:25:27.010Z,85.50
2023-04-27T14:27:55.654Z,85.70
2023-04-27T14:30:24.237Z,86.20
2023-04-27T14:32:51.972Z,85.80
2023-04-27T14:35:19.667Z,86.10
2023-04-27T14:37:47.650Z,86.40
2023-04-27T14:40:15.684Z,86.20
2023-04-27T14:42:43.271Z,86.20
2023-04-27T14:45:11.357Z,86.30
2023-04-27T14:47:39.105Z,86.80
2023-04-27T14:50:06.786Z,87.00
2023-04-27T14:52:34.819Z,87.10
2023-04-27T14:55:02.602Z,87.20
2023-04-27T14:57:30.521Z,87.50
2023-04-27T14:59:58.450Z,87.80
2023-04-27T15:02:26.271Z,88.00
2023-04-27T15:04:54.681Z,88.30
2023-04-27T15:07:23.621Z,88.70
2023-04-27T15:09:51.524Z,88.80
2023-04-27T15:12:19.246Z,89.20
2023-04-27T15:14:47.933Z,89.50
2023-04-27T15:17:15.583Z,89.80
2023-04-27T15:19:43.154Z,90.10
2023-04-27T15:22:13.769Z,90.20
2023-04-27T15:24:41.753Z,90.40
2023-04-27T15:27:10.064Z,90.50
2023-04-27T15:29:39.037Z,90.50
2023-04-27T15:32:06.788Z,90.60
2023-04-27T15:34:34.542Z,90.70
2023-04-27T15:37:03.173Z,90.80
2023-04-27T15:39:31.221Z,91.30
2023-04-27T15:41:59.120Z,91.00
2023-04-27T15:44:27.007Z,91.20
2023-04-27T15:46:54.759Z,91.30
2023-04-27T15:49:22.400Z,91.10
2023-04-27T15:51:50.139Z,91.10
2023-04-27T15:54:17.950Z,91.30
2023-04-27T15:56:45.564Z,91.10
2023-04-27T15:59:14.314Z,91.10
2023-04-27T16:01:42.166Z,91.10
2023-04-27T16:04:09.920Z,91.20
2023-04-27T16:06:38.594Z,91.40
2023-04-27T16:09:07.540Z,91.60
2023-04-27T16:11:36.925Z,91.70
2023-04-27T16:14:05.774Z,92.20
2023-04-27T16:16:33.579Z,92.00
2023-04-27T16:19:01.138Z,92.20
2023-04-27T16:21:29.528Z,92.40
2023-04-27T16:23:57.108Z,92.60
2023-04-27T16:26:26.005Z,92.60
2023-04-27T16:28:56.905Z,92.40
2023-04-27T16:31:24.720Z,92.70
2023-04-27T16:33:52.608Z,92.80
2023-04-27T16:36:20.789Z,92.90
2023-04-27T16:38:48.621Z,92.80
2023-04-27T16:41:16.204Z,92.90
2023-04-27T16:43:43.772Z,93.00
2023-04-27T16:46:11.795Z,93.10
2023-04-27T16:48:39.575Z,93.30
2023-04-27T16:51:07.556Z,93.40
2023-04-27T16:53:35.365Z,93.60
2023-04-27T16:56:02.934Z,93.30
2023-04-27T16:58:31.464Z,93.40
2023-04-27T17:00:59.122Z,93.60
2023-04-27T17:03:26.980Z,93.60
2023-04-27T17:05:54.964Z,93.80
2023-04-27T17:08:22.666Z,93.80
2023-04-27T17:10:50.276Z,94.10
2023-04-27T17:13:18.839Z,94.10
2023-04-27T17:15:46.686Z,94.10
2023-04-27T17:18:14.343Z,94.40
2023-04-27T17:20:42.386Z,94.30
2023-04-27T17:23:10.340Z,94.60
2023-04-27T17:25:37.900Z,94.50
2023-04-27T17:28:06.247Z,94.70
2023-04-27T17:30:33.932Z,95.00
2023-04-27T17:33:01.527Z,95.00
2023-04-27T17:35:29.334Z,95.60
2023-04-27T17:37:56.971Z,95.60
2023-04-27T17:40:24.575Z,95.80
2023-04-27T17:42:52.332Z,96.00
2023-04-27T17:45:20.269Z,96.20
2023-04-27T17:47:48.037Z,96.20
2023-04-27T17:50:15.817Z,96.30
2023-04-27T17:52:43.464Z,96.20
2023-04-27T17:55:10.992Z,96.10
2023-04-27T17:57:38.735Z,96.10
2023-04-27T18:00:06.629Z,96.30
2023-04-27T18:02:34.379Z,96.40
2023-04-27T18:05:03.147Z,96.50
2023-04-27T18:07:33.758Z,96.50
2023-04-27T18:10:04.363Z,96.60
2023-04-27T18:12:35.087Z,96.90
2023-04-27T18:15:06.277Z,96.80
2023-04-27T18:17:35.996Z,96.90
2023-04-27T18:20:08.821Z,97.00
2023-04-27T18:22:38.412Z,97.30
2023-04-27T18:25:06.094Z,97.40
2023-04-27T18:27:33.938Z,97.80
2023-04-27T18:30:02.166Z,97.70
2023-04-27T18:32:29.716Z,97.70
2023-04-27T18:34:57.348Z,97.50
2023-04-27T18:37:25.196Z,97.50
2023-04-27T18:39:53.113Z,97.70
2023-04-27T18:42:20.804Z,97.60
2023-04-27T18:44:48.499Z,97.80
2023-04-27T18:47:16.127Z,97.90
2023-04-27T18:49:43.749Z,98.30
2023-04-27T18:52:11.545Z,98.40
2023-04-27T18:54:39.191Z,98.40
2023-04-27T18:57:06.692Z,98.50
2023-04-27T18:59:34.497Z,98.50
2023-04-27T19:02:02.112Z,98.70
2023-04-27T19:04:29.876Z,99.20
2023-04-27T19:06:57.768Z,99.00
2023-04-27T19:09:25.348Z,99.00
2023-04-27T19:11:59.973Z,99.20
2023-04-27T19:14:30.933Z,99.40
2023-04-27T19:16:58.533Z,99.90
2023-04-27T19:19:26.186Z,99.90
2023-04-27T19:21:53.915Z,99.90
2023-04-27T19:24:21.602Z,99.90
2023-04-27T19:26:49.304Z,99.90
2023-04-27T19:29:17.639Z,99.90
2023-04-27T19:31:45.464Z,99.90
2023-04-27T19:34:13.104Z,99.90
2023-04-27T19:36:41.172Z,99.90
2023-04-27T19:39:08.838Z,99.90
2023-04-27T19:41:36.412Z,99.90
2023-04-27T19:44:04.120Z,99.90
2023-04-27T19:46:31.771Z,99.90
2023-04-27T19:48:59.326Z,99.90
2023-04-27T19:51:27.070Z,99.90
2023-04-27T19:53:54.572Z,99.90
2023-04-27T19:56:22.125Z,99.90
2023-04-27T19:58:50.640Z,99.90
2023-04-27T20:01:18.759Z,99.90
2023-04-27T20:03:48.263Z,99.90
2023-04-27T20:06:19.306Z,99.90
2023-04-27T20:08:46.919Z,99.90
2023-04-27T20:11:14.548Z,99.90
2023-04-27T20:13:42.412Z,99.90
2023-04-27T20:16:10.062Z,99.90
2023-04-27T20:18:37.641Z,99.90
2023-04-27T20:21:07.927Z,99.90
2023-04-27T20:23:35.675Z,99.90
2023-04-27T20:26:03.264Z,99.90
2023-04-27T20:28:31.427Z,99.90
2023-04-27T20:30:58.992Z,99.90
2023-04-27T20:33:26.836Z,99.90
2023-04-27T20:35:58.695Z,99.90
2023-04-27T20:38:29.370Z,99.90
2023-04-27T20:40:57.152Z,99.90
2023-04-27T20:43:25.023Z,99.90
2023-04-27T20:45:52.706Z,99.90
2023-04-27T20:48:20.665Z,99.90
2023-04-27T20:50:48.247Z,99.90
2023-04-27T20:53:15.797Z,99.90
2023-04-27T20:55:43.607Z,99.90
2023-04-27T20:58:11.360Z,99.90
2023-04-27T21:00:38.925Z,99.90
2023-04-27T21:03:07.044Z,99.90
2023-04-27T21:05:34.697Z,99.90
2023-04-27T21:08:02.175Z,99.90
2023-04-27T21:10:29.996Z,99.90
2023-04-27T21:12:57.587Z,99.90
2023-04-27T21:15:25.153Z,99.90
2023-04-27T21:17:52.831Z,99.90
2023-04-27T21:20:20.420Z,99.90
2023-04-27T21:22:48.291Z,99.90
2023-04-27T21:25:16.228Z,99.90
2023-04-27T21:27:43.837Z,99.90
2023-04-27T21:30:11.341Z,99.90
2023-04-27T21:32:39.425Z,99.90
2023-04-27T21:35:07.112Z,99.90
2023-04-27T21:37:34.803Z,99.90
2023-04-27T21:40:02.666Z,99.90
2023-04-27T21:42:30.303Z,99.90
2023-04-27T21:44:57.863Z,99.90
2023-04-27T21:47:25.724Z,99.90
2023-04-27T21:49:53.300Z,99.90
2023-04-27T21:52:20.839Z,99.90
2023-04-27T21:54:48.757Z,99.90
2023-04-27T21:57:17.277Z,99.90
2023-04-27T21:59:46.337Z,99.90
2023-04-27T22:02:14.286Z,99.90
2023-04-27T22:04:41.859Z,99.90
2023-04-27T22:07:09.515Z,99.90
2023-04-27T22:09:37.377Z,99.90
2023-04-27T22:12:05.094Z,99.90
2023-04-27T22:14:32.812Z,99.90
2023-04-27T22:17:00.919Z,99.90
2023-04-27T22:19:30.472Z,99.90
2023-04-27T22:21:58.171Z,99.90
2023-04-27T22:24:27.948Z,99.90
2023-04-27T22:26:55.606Z,99.90
2023-04-27T22:29:24.920Z,99.90
2023-04-27T22:31:52.866Z,99.90
2023-04-27T22:34:20.541Z,99.90
2023-04-27T22:36:48.212Z,99.90
2023-04-27T22:39:18.363Z,99.90
2023-04-27T22:41:46.310Z,99.90
2023-04-27T22:44:14.966Z,99.90
2023-04-27T22:46:42.817Z,99.90
2023-04-27T22:49:10.574Z,99.90
2023-04-27T22:51:38.374Z,99.90
2023-04-27T22:54:06.102Z,99.90
2023-04-27T22:56:33.670Z,99.90
2023-04-27T22:59:01.242Z,99.90
2023-04-27T23:01:29.120Z,99.90
2023-04-27T23:03:56.803Z,99.90
2023-04-27T23:06:24.440Z,99.90
2023-04-27T23:08:52.251Z,99.90
2023-04-27T23:11:19.846Z,99.90
2023-04-27T23:13:47.601Z,99.90
2023-04-27T23:16:15.646Z,99.90
2023-04-27T23:18:43.198Z,99.90
2023-04-27T23:21:10.774Z,99.90
2023-04-27T23:23:38.749Z,99.90
2023-04-27T23:26:06.381Z,99.90
2023-04-27T23:28:34.412Z,99.90
2023-04-27T23:31:02.083Z,99.90
2023-04-27T23:33:30.020Z,99.90
2023-04-27T23:35:57.602Z,99.90
2023-04-27T23:38:25.371Z,99.90
2023-04-27T23:40:52.893Z,99.90
2023-04-27T23:43:20.766Z,99.90
2023-04-27T23:45:48.398Z,99.90
2023-04-27T23:48:16.929Z,99.90
2023-04-27T23:50:44.514Z,99.90
2023-04-27T23:53:21.257Z,99.90
2023-04-27T23:55:48.928Z,99.90
2023-04-27T23:58:16.508Z,99.90
